Kezdőlap
METAR-TAF:

METAR-TAF

Repülőterek :

Hugoton, Kansas, Amerikai Egyesült Államok

földrajzi szélesség: 37-09-47N, földrajzi hosszúság: 101-22-14W, magasság: 955 m

Jelenlegi meteorológiai megfigyelések

A jelentés 33 perccel ezelõtt készült, 11:15 UTC
Nyugat-délnyugati szél 10 kt
Hőmérséklet 20°C
Páratartalom 68%
Légköri nyomás 1015 hPa
Látótávolság: 16.1 km
Derült ég

METAR: KHQG 151115Z AUTO 24010KT 10SM CLR 20/14 A2997 RMK AO2

Idő: 06:48 (11:48 UTC)


TAF: hiányzik

Meteorológiai megfigyelések és előrejelzések több, mint 4000 repülőtéren (METAR és TAF jelentéseket).

A térképen piros és sárga pontok jelzik az elérhető meteorológiai állomásokat.

Mozgassa az egeret a pont fölött, hogy megjelenjen az állomás neve.

Azután kattintson az időjárási megfigyelések és előrejelzések megtekintéséhez.

A térkép megváltoztatása: kattintson a fekete keresztel jelölt zöld gombra ráközelítéshez, a vonallal jelölt zöld gombra távolításhoz, vagy a zöld nyilakra a szomszédos térképek eléréséhez.


METAR-TAF: